Ocean Fortune — A8PV3 — position and weather

sailwx.info

Track history (hours):
 
Tides and Currents Weather Stations Pressure Air Temp Water Temp Dewpoint Dewpoint Depression Visibility Wind Speed Wind Dir Waves Ship Positions

Ocean Fortune

Last reported at 2018-Feb-21 13:13 UTC. Time now 2018-Feb-23 06:55 UTC.
Position N 49°26' W 004°19'.

Length 115 m; draft 5.7 m.

Type: Cargo ship. MMSI: 636013841.

Date/timePositionNaut miles runAvg speedWind from/ knotsBaromVisibWave heightAir tempDewpointWater temp
2018-Feb-21 13:13N 49°26' W 004°19'3911.7
2018-Feb-21 09:51N 49°46' W 003°26'410.4
2018-Feb-21 09:30N 49°47' W 003°21'510.4
2018-Feb-21 09:00N 49°50' W 003°14'610.6
2018-Feb-21 08:26N 49°53' W 003°06'511.0
2018-Feb-21 08:00N 49°55' W 002°59'611.5
2018-Feb-21 07:27N 49°58' W 002°50'3213.8
2018-Feb-21 05:08N 50°08' W 002°03'215.5
2018-Feb-21 05:00N 50°08' W 001°60'815.4
2018-Feb-21 04:30N 50°11' W 001°49'815.2
2018-Feb-21 04:01N 50°13' W 001°37'714.6
2018-Feb-21 03:31N 50°15' W 001°26'713.9
2018-Feb-21 03:01N 50°17' W 001°16'3810.6
2018-Feb-20 23:27N 50°27' W 000°19'4 9.8
2018-Feb-20 23:00N 50°29' W 000°13'510.3
2018-Feb-20 22:30N 50°31' W 000°05'510.7
2018-Feb-20 22:00N 50°32' E 000°03'611.3
2018-Feb-20 21:30N 50°34' E 000°11'611.9
2018-Feb-20 21:00N 50°36' E 000°20'712.8
2018-Feb-20 20:28N 50°38' E 000°31'613.1
2018-Feb-20 20:00N 50°40' E 000°39'713.1
2018-Feb-20 19:30N 50°43' E 000°49'713.1
2018-Feb-20 19:00N 50°47' E 000°57'712.7
2018-Feb-20 18:28N 50°52' E 001°05'612.3
2018-Feb-20 17:59N 50°56' E 001°12'611.6
2018-Feb-20 17:30N 50°59' E 001°19'510.8
2018-Feb-20 17:00N 51°03' E 001°25'510.1
2018-Feb-20 16:30N 51°06' E 001°31'4 8.9
2018-Feb-20 16:00N 51°09' E 001°37'4 8.8
2018-Feb-20 15:30N 51°12' E 001°42'5 9.1
2018-Feb-20 15:00N 51°15' E 001°47'5 9.6
2018-Feb-20 14:30N 51°19' E 001°50'510.4
2018-Feb-20 14:00N 51°24' E 001°54'611.5
2018-Feb-20 13:30N 51°29' E 001°59'612.5
2018-Feb-20 13:00N 51°34' E 002°04'713.0
2018-Feb-20 12:29N 51°40' E 002°09'913.7
2018-Feb-20 11:49N 51°48' E 002°17'26311.4
2018-Feb-19 12:47N 55°33' E 006°05'311.6
2018-Feb-19 12:29N 55°36' E 006°08'511.6
2018-Feb-19 12:00N 55°41' E 006°14'611.6
2018-Feb-19 11:30N 55°46' E 006°20'611.6
2018-Feb-19 11:00N 55°50' E 006°25'611.7
2018-Feb-19 10:28N 55°56' E 006°31'611.6
2018-Feb-19 09:59N 56°01' E 006°37'511.5
2018-Feb-19 09:30N 56°05' E 006°42'611.3
2018-Feb-19 08:57N 56°10' E 006°48'611.3
2018-Feb-19 08:24N 56°16' E 006°54'511.3
2018-Feb-19 07:58N 56°20' E 006°58'511.1
2018-Feb-19 07:30N 56°24' E 007°03'611.1
2018-Feb-19 06:59N 56°29' E 007°09'511.2
2018-Feb-19 06:30N 56°34' E 007°14'611.3
2018-Feb-19 05:58N 56°39' E 007°20'611.5
2018-Feb-19 05:29N 56°44' E 007°25'611.6
2018-Feb-19 05:00N 56°48' E 007°32'611.7
2018-Feb-19 04:29N 56°53' E 007°38'611.8
2018-Feb-19 03:58N 56°58' E 007°44'611.8
2018-Feb-19 03:30N 57°02' E 007°50'611.6
2018-Feb-19 03:00N 57°07' E 007°56'611.4
2018-Feb-19 02:29N 57°11' E 008°04'511.2
2018-Feb-19 02:00N 57°14' E 008°12'611.4
2018-Feb-19 01:30N 57°17' E 008°21'611.3
2018-Feb-19 00:59N 57°21' E 008°30'611.1
2018-Feb-19 00:29N 57°24' E 008°39'510.9
2018-Feb-19 00:00N 57°27' E 008°47'610.9
2018-Feb-18 23:29N 57°31' E 008°55'510.4
2018-Feb-18 22:59N 57°34' E 009°02'510.2
2018-Feb-18 22:30N 57°37' E 009°09'510.2
2018-Feb-18 22:00N 57°40' E 009°16'510.4
2018-Feb-18 21:30N 57°44' E 009°24'510.5
2018-Feb-18 20:59N 57°47' E 009°31'510.5
2018-Feb-18 20:29N 57°50' E 009°39'510.4
2018-Feb-18 19:59N 57°51' E 009°49'510.5
2018-Feb-18 19:30N 57°51' E 009°59'510.4
2018-Feb-18 18:59N 57°50' E 010°09'510.2
2018-Feb-18 18:30N 57°50' E 010°18'510.0
2018-Feb-18 18:00N 57°50' E 010°27'510.4
2018-Feb-18 17:30N 57°50' E 010°37'510.3
2018-Feb-18 17:00N 57°49' E 010°46'611.3
2018-Feb-18 16:30N 57°45' E 010°54'611.4
2018-Feb-18 16:00N 57°41' E 011°02'612.0
2018-Feb-18 15:30N 57°37' E 011°10'612.0
2018-Feb-18 15:00N 57°33' E 011°18'611.8
2018-Feb-18 14:30N 57°29' E 011°26'612.0
2018-Feb-18 14:00N 57°23' E 011°30'612.0
2018-Feb-18 13:30N 57°18' E 011°34'612.1
2018-Feb-18 13:00N 57°12' E 011°38'612.2
2018-Feb-18 12:30N 57°06' E 011°42'612.2
2018-Feb-18 11:59N 57°00' E 011°46'4311.9
2018-Feb-18 08:22N 56°19' E 012°07'411.5
2018-Feb-18 08:00N 56°16' E 012°12'611.5
2018-Feb-18 07:30N 56°12' E 012°20'611.7
2018-Feb-18 07:00N 56°09' E 012°29'612.8
2018-Feb-18 06:30N 56°05' E 012°37'612.3
2018-Feb-18 06:00N 55°59' E 012°42'612.0
2018-Feb-18 05:30N 55°53' E 012°44'612.3
2018-Feb-18 05:00N 55°47' E 012°43'611.3
2018-Feb-18 04:30N 55°42' E 012°41'510.5
2018-Feb-18 04:00N 55°36' E 012°42'511.0
2018-Feb-18 03:30N 55°31' E 012°43'612.3
2018-Feb-18 03:00N 55°25' E 012°42'612.1
2018-Feb-18 02:30N 55°19' E 012°41'611.7
2018-Feb-18 02:00N 55°16' E 012°51'3711.9
2018-Feb-17 22:54N 55°14' E 013°55'711.9
2018-Feb-17 22:19N 55°13' E 014°07'411.8
2018-Feb-17 21:59N 55°13' E 014°14'611.1
2018-Feb-17 21:28N 55°17' E 014°22'711.9
2018-Feb-17 20:55N 55°22' E 014°29'512.0
2018-Feb-17 20:30N 55°26' E 014°35'611.8
2018-Feb-17 20:00N 55°29' E 014°44'611.8
2018-Feb-17 19:30N 55°32' E 014°52'611.8
2018-Feb-17 19:00N 55°35' E 015°01'611.7
2018-Feb-17 18:30N 55°38' E 015°10'611.7
2018-Feb-17 18:00N 55°41' E 015°19'611.8
2018-Feb-17 17:30N 55°44' E 015°28'612.0
2018-Feb-17 17:00N 55°46' E 015°38'612.1
2018-Feb-17 16:30N 55°49' E 015°47'612.1
2018-Feb-17 16:00N 55°52' E 015°57'612.1
2018-Feb-17 15:30N 55°54' E 016°07'612.2
2018-Feb-17 15:00N 55°57' E 016°17'612.1
2018-Feb-17 14:30N 55°59' E 016°27'3 5.5
2018-Feb-17 13:59N 55°60' E 016°32'0 0.6
2018-Feb-17 13:29N 56°00' E 016°32'0 0.7
2018-Feb-17 12:59N 56°01' E 016°32'0 0.6
2018-Feb-17 12:29N 56°01' E 016°32'0 0.7
2018-Feb-17 11:59N 56°01' E 016°32'0 0.7
2018-Feb-17 11:29N 56°02' E 016°32'0 0.8
2018-Feb-17 10:59N 56°02' E 016°32'0 0.7
2018-Feb-17 10:29N 56°02' E 016°32'0 0.8
2018-Feb-17 09:59N 56°03' E 016°32'0 0.6
2018-Feb-17 09:29N 56°03' E 016°32'0 0.6
2018-Feb-17 08:59N 56°03' E 016°32'0 0.6
2018-Feb-17 08:29N 56°04' E 016°31'1 1.1
2018-Feb-17 08:00N 56°04' E 016°31'4 8.1
2018-Feb-17 07:30N 56°06' E 016°37'29011.7
2018-Feb-16 06:43N 59°34' E 022°57'312.6
2018-Feb-16 06:30N 59°35' E 023°02'612.3
2018-Feb-16 06:00N 59°37' E 023°13'612.1
2018-Feb-16 05:30N 59°39' E 023°25'612.1
2018-Feb-16 05:00N 59°40' E 023°36'612.4
2018-Feb-16 04:30N 59°41' E 023°48'812.3
2018-Feb-16 03:52N 59°44' E 024°03'412.1
2018-Feb-16 03:30N 59°45' E 024°12'612.2
2018-Feb-16 02:59N 59°46' E 024°24'612.4
2018-Feb-16 02:30N 59°48' E 024°36'612.5
2018-Feb-16 02:00N 59°49' E 024°48'611.9
2018-Feb-16 01:30N 59°50' E 024°59'611.9
2018-Feb-16 01:00N 59°51' E 025°11'3211.9
2018-Feb-15 22:20N 59°59' E 026°13'410.7
2018-Feb-15 22:00N 59°60' E 026°19'611.3
2018-Feb-15 21:30N 60°01' E 026°30'611.6
2018-Feb-15 21:00N 60°01' E 026°42'712.9
2018-Feb-15 20:29N 60°00' E 026°55'813.2
2018-Feb-15 19:50N 60°02' E 027°12'2 5.8
2018-Feb-15 19:29N 60°03' E 027°15'510.8
2018-Feb-15 18:59N 60°06' E 027°24'611.1
2018-Feb-15 18:28N 60°09' E 027°35'3 5.6
2018-Feb-15 17:54N 60°10' E 027°40'2 6.1
2018-Feb-15 17:30N 60°11' E 027°45'3 6.1
2018-Feb-15 17:00N 60°11' E 027°51'5 8.3
2018-Feb-15 16:26N 60°10' E 028°00'4 9.1
2018-Feb-15 16:00N 60°09' E 028°08'3 6.5
2018-Feb-15 15:30N 60°08' E 028°14'4 9.0
2018-Feb-15 15:00N 60°05' E 028°21'4 8.1
2018-Feb-15 14:30N 60°04' E 028°29'5 9.6
2018-Feb-15 14:00N 60°03' E 028°38'610.9
2018-Feb-15 13:29N 60°03' E 028°50'611.6
2018-Feb-15 13:00N 60°03' E 029°01'711.9
2018-Feb-15 12:25N 60°02' E 029°15'7 9.5
2018-Feb-15 11:39N 60°01' E 029°29'0 3.1
2018-Feb-15 11:30N 60°01' E 029°30'4 7.5
2018-Feb-15 10:59N 60°00' E 029°38'510.2
2018-Feb-15 10:28N 59°58' E 029°47'510.5
2018-Feb-15 10:00N 59°56' E 029°56'510.3
2018-Feb-15 09:30N 59°54' E 030°05'3 6.5
2018-Feb-15 09:00N 59°53' E 030°12'1 2.0
2018-Feb-15 08:30N 59°54' E 030°13'0 0.0
2018-Feb-15 07:55N 59°54' E 030°13'0 0.0
2018-Feb-15 07:28N 59°54' E 030°13'0 0.0
2018-Feb-15 06:58N 59°54' E 030°13'0 0.0
2018-Feb-15 06:25N 59°54' E 030°13'0 0.0
2018-Feb-15 05:58N 59°54' E 030°13'0 0.0
2018-Feb-15 05:28N 59°54' E 030°13'0 0.0
2018-Feb-15 04:58N 59°54' E 030°13'0 0.0
2018-Feb-15 04:28N 59°54' E 030°13'0 0.0
2018-Feb-15 03:58N 59°54' E 030°13'0 0.0
2018-Feb-15 03:28N 59°54' E 030°13'0 0.0
2018-Feb-15 02:58N 59°54' E 030°13'0 0.0
2018-Feb-15 02:25N 59°54' E 030°13'0 0.0
2018-Feb-15 01:58N 59°54' E 030°13'0 0.0
2018-Feb-15 01:28N 59°54' E 030°13'0 0.0
2018-Feb-15 00:58N 59°54' E 030°13'0 0.0
2018-Feb-15 00:28N 59°54' E 030°13'0 0.0
2018-Feb-14 23:58N 59°54' E 030°13'0 0.0
2018-Feb-14 23:28N 59°54' E 030°13'0 0.0
2018-Feb-14 22:58N 59°54' E 030°13'0 0.0
2018-Feb-14 22:28N 59°54' E 030°13'0 0.0
2018-Feb-14 21:58N 59°54' E 030°13'0 0.0
2018-Feb-14 21:28N 59°54' E 030°13'0 0.0
2018-Feb-14 20:58N 59°54' E 030°13'0 0.0
2018-Feb-14 20:28N 59°54' E 030°13'0 0.0
2018-Feb-14 19:58N 59°54' E 030°13'0 0.0
2018-Feb-14 19:28N 59°54' E 030°13'0 0.0
2018-Feb-14 18:58N 59°54' E 030°13'0 0.0
2018-Feb-14 18:28N 59°54' E 030°13'0 0.0
2018-Feb-14 17:58N 59°54' E 030°13'0 0.0
2018-Feb-14 17:28N 59°54' E 030°13'0 0.0
2018-Feb-14 16:55N 59°54' E 030°13'0 0.0
2018-Feb-14 16:28N 59°54' E 030°13'0 0.0
2018-Feb-14 15:58N 59°54' E 030°13'0 0.0
2018-Feb-14 15:28N 59°54' E 030°13'0 0.0
2018-Feb-14 14:58N 59°54' E 030°13'0 0.0
2018-Feb-14 14:28N 59°54' E 030°13'0 0.0
2018-Feb-14 13:58N 59°54' E 030°13'0 0.0
2018-Feb-14 13:28N 59°54' E 030°13'0 0.0
2018-Feb-14 12:58N 59°54' E 030°13'0 0.0
2018-Feb-14 12:28N 59°54' E 030°13'0 0.0
2018-Feb-14 11:58N 59°54' E 030°13'0 0.0
2018-Feb-14 11:28N 59°54' E 030°13'0 0.0
2018-Feb-14 10:58N 59°54' E 030°13'0 0.0
2018-Feb-14 10:28N 59°54' E 030°13'0 0.0
2018-Feb-14 09:55N 59°54' E 030°13'0 0.0
2018-Feb-14 09:28N 59°54' E 030°13'0 0.0
2018-Feb-14 08:58N 59°54' E 030°13'0 0.0
2018-Feb-14 08:28N 59°54' E 030°13'0 0.0
2018-Feb-14 07:58N 59°54' E 030°13'0 0.0
2018-Feb-14 07:28N 59°54' E 030°13'0 0.0
2018-Feb-14 06:58N 59°54' E 030°13'0 0.0
2018-Feb-14 06:28N 59°54' E 030°13'0 0.0
2018-Feb-14 05:58N 59°54' E 030°13'0 0.0
2018-Feb-14 05:28N 59°54' E 030°13'0 0.0
2018-Feb-14 04:58N 59°54' E 030°13'0 0.0
2018-Feb-14 04:28N 59°54' E 030°13'0 0.0
2018-Feb-14 03:58N 59°54' E 030°13'0 0.0
2018-Feb-14 03:28N 59°54' E 030°13'0 0.0
2018-Feb-14 02:58N 59°54' E 030°13'0 0.0
2018-Feb-14 02:28N 59°54' E 030°13'0 0.0
2018-Feb-14 01:52N 59°54' E 030°13'0 0.0
2018-Feb-14 01:28N 59°54' E 030°13'0 0.0
2018-Feb-14 00:58N 59°54' E 030°13'0 0.0
2018-Feb-14 00:28N 59°54' E 030°13'0 0.0
2018-Feb-13 23:58N 59°54' E 030°13'0 0.0
2018-Feb-13 23:28N 59°54' E 030°13'0 0.0
2018-Feb-13 22:58N 59°54' E 030°13'0 0.0
2018-Feb-13 22:28N 59°54' E 030°13'0 0.0
2018-Feb-13 21:58N 59°54' E 030°13'0 0.0
2018-Feb-13 21:28N 59°54' E 030°13'0 0.0
2018-Feb-13 20:55N 59°54' E 030°13'0 0.0
2018-Feb-13 20:28N 59°54' E 030°13'0 0.0
2018-Feb-13 19:55N 59°54' E 030°13'0 0.0
2018-Feb-13 19:28N 59°54' E 030°13'0 0.0
2018-Feb-13 18:58N 59°54' E 030°13'0 0.0
2018-Feb-13 18:28N 59°54' E 030°13'0 0.0
2018-Feb-13 17:58N 59°54' E 030°13'0 0.0
2018-Feb-13 17:28N 59°54' E 030°13'0 0.0
2018-Feb-13 16:55N 59°54' E 030°13'0 0.0
2018-Feb-13 16:28N 59°54' E 030°13'0 0.0
2018-Feb-13 15:58N 59°54' E 030°13'0 0.0
2018-Feb-13 15:28N 59°54' E 030°13'0 0.0
2018-Feb-13 14:58N 59°54' E 030°13'0 0.0
2018-Feb-13 14:28N 59°54' E 030°13'0 0.0
2018-Feb-13 13:58N 59°54' E 030°13'0 0.0
2018-Feb-13 13:28N 59°54' E 030°13'0 0.0
2018-Feb-13 12:58N 59°54' E 030°13'0 0.0
2018-Feb-13 12:28N 59°54' E 030°13'0 0.0
2018-Feb-13 11:58N 59°54' E 030°13'0 0.0
2018-Feb-13 11:28N 59°54' E 030°13'0 0.0
2018-Feb-13 10:58N 59°54' E 030°13'0 0.0
2018-Feb-13 10:28N 59°54' E 030°13'0 0.0
2018-Feb-13 09:58N 59°54' E 030°13'0 0.0
2018-Feb-13 09:28N 59°54' E 030°13'0 0.0
2018-Feb-13 08:55N 59°54' E 030°13'0 0.0
2018-Feb-13 08:28N 59°54' E 030°13'0 0.0
2018-Feb-13 07:58N 59°54' E 030°13'0 0.0
2018-Feb-13 07:28N 59°54' E 030°13'0 0.0
2018-Feb-13 06:58N 59°54' E 030°13'0 0.0
2018-Feb-13 06:28N 59°54' E 030°13'0 0.0
2018-Feb-13 05:58N 59°54' E 030°13'0 0.0
2018-Feb-13 05:28N 59°54' E 030°13'0 0.0
2018-Feb-13 04:58N 59°54' E 030°13'0 0.0
2018-Feb-13 04:28N 59°54' E 030°13'0 0.0
2018-Feb-13 03:58N 59°54' E 030°13'0 0.0
2018-Feb-13 03:25N 59°54' E 030°13'0 0.0
2018-Feb-13 02:58N 59°54' E 030°13'0 0.0
2018-Feb-13 02:28N 59°54' E 030°13'0 0.0
2018-Feb-13 01:58N 59°54' E 030°13'0 0.0
2018-Feb-13 01:28N 59°54' E 030°13'0 0.0
2018-Feb-13 00:58N 59°54' E 030°13'0 0.0
2018-Feb-13 00:28N 59°54' E 030°13'0 0.0
2018-Feb-12 23:58N 59°54' E 030°13'0 0.0
2018-Feb-12 23:28N 59°54' E 030°13'0 0.0
2018-Feb-12 22:58N 59°54' E 030°13'0 0.0
2018-Feb-12 22:28N 59°54' E 030°13'0 0.0
2018-Feb-12 21:58N 59°54' E 030°13'0 0.0
2018-Feb-12 21:28N 59°54' E 030°13'0 0.0
2018-Feb-12 20:58N 59°54' E 030°13'0 0.0
2018-Feb-12 20:28N 59°54' E 030°13'0 0.0
2018-Feb-12 19:58N 59°54' E 030°13'0 0.0
2018-Feb-12 19:25N 59°54' E 030°13'0 0.0
2018-Feb-12 18:58N 59°54' E 030°13'0 0.0
2018-Feb-12 18:28N 59°54' E 030°13'0 0.0
2018-Feb-12 17:58N 59°54' E 030°13'0 0.0
2018-Feb-12 17:28N 59°54' E 030°13'0 0.0
2018-Feb-12 16:55N 59°54' E 030°13'0 0.0
2018-Feb-12 16:28N 59°54' E 030°13'0 0.0
2018-Feb-12 15:58N 59°54' E 030°13'0 0.0
2018-Feb-12 15:16N 59°54' E 030°13'0 0.0
2018-Feb-12 14:58N 59°54' E 030°13'0 0.0
2018-Feb-12 14:28N 59°54' E 030°13'0 0.0
2018-Feb-12 13:58N 59°54' E 030°13'0 0.0
2018-Feb-12 13:28N 59°54' E 030°13'0 0.0
2018-Feb-12 12:58N 59°54' E 030°13'0 0.0
2018-Feb-12 12:28N 59°54' E 030°13'0 0.0
2018-Feb-12 11:58N 59°54' E 030°13'0 0.0
2018-Feb-12 11:28N 59°54' E 030°13'0 0.0
2018-Feb-12 10:58N 59°54' E 030°13'0 0.0
2018-Feb-12 10:28N 59°54' E 030°13'0 0.0
2018-Feb-12 09:58N 59°54' E 030°13'0 0.0
2018-Feb-12 09:28N 59°54' E 030°13'0 0.0
2018-Feb-12 08:58N 59°54' E 030°13'0 0.0
2018-Feb-12 08:28N 59°54' E 030°13'0 0.0
2018-Feb-12 07:58N 59°54' E 030°13'0 0.0
2018-Feb-12 07:28N 59°54' E 030°13'0 0.0
2018-Feb-12 06:58N 59°54' E 030°13'0 0.0
2018-Feb-12 06:28N 59°54' E 030°13'0 0.0
2018-Feb-12 05:58N 59°54' E 030°13'0 0.0
2018-Feb-12 05:28N 59°54' E 030°13'0 0.0
2018-Feb-12 04:58N 59°54' E 030°13'0 0.0
2018-Feb-12 04:28N 59°54' E 030°13'0 0.0
2018-Feb-12 03:58N 59°54' E 030°13'0 0.0
2018-Feb-12 03:28N 59°54' E 030°13'0 0.0
2018-Feb-12 02:58N 59°54' E 030°13'0 0.0
2018-Feb-12 02:28N 59°54' E 030°13'0 0.0
2018-Feb-12 01:58N 59°54' E 030°13'0 0.0
2018-Feb-12 01:28N 59°54' E 030°13'0 0.1
2018-Feb-12 01:00N 59°54' E 030°13'0 0.0
2018-Feb-12 00:30N 59°54' E 030°13'1 1.0
2018-Feb-12 00:00N 59°53' E 030°13'2 3.7
2018-Feb-11 23:30N 59°55' E 030°15'1 1.5
2018-Feb-11 23:00N 59°54' E 030°14'0 0.0
2018-Feb-11 22:30N 59°54' E 030°14'0 0.0
2018-Feb-11 21:58N 59°54' E 030°14'0 0.0
2018-Feb-11 21:28N 59°54' E 030°14'0 0.0
2018-Feb-11 20:58N 59°54' E 030°14'0 0.0
2018-Feb-11 20:28N 59°54' E 030°14'0 0.0
2018-Feb-11 19:58N 59°54' E 030°14'0 0.0
2018-Feb-11 19:28N 59°54' E 030°14'0 0.0
2018-Feb-11 18:58N 59°54' E 030°14'0 0.0
2018-Feb-11 18:28N 59°54' E 030°14'0 0.0
2018-Feb-11 17:55N 59°54' E 030°14'0 0.0
2018-Feb-11 17:28N 59°54' E 030°14'0 0.0
2018-Feb-11 16:58N 59°54' E 030°14'0 0.0
2018-Feb-11 16:28N 59°54' E 030°14'0 0.0
2018-Feb-11 15:58N 59°54' E 030°14'0 0.0
2018-Feb-11 15:28N 59°54' E 030°14'0 0.0
2018-Feb-11 14:58N 59°54' E 030°14'0 0.0
2018-Feb-11 14:28N 59°54' E 030°14'0 0.0
2018-Feb-11 13:58N 59°54' E 030°14'0 0.0
2018-Feb-11 13:28N 59°54' E 030°14'  
Track history (hours):
 
Tides and Currents Weather Stations Pressure Air Temp Water Temp Dewpoint Dewpoint Depression Visibility Wind Speed Wind Dir Waves Ship Positions

Ocean Fortune

Last reported at 2018-Feb-21 13:13 UTC. Time now 2018-Feb-23 06:55 UTC.
Position N 49°26' W 004°19'.

Length 115 m; draft 5.7 m.

Type: Cargo ship. MMSI: 636013841.

Date/timePositionNaut miles runAvg speedWind from/ knotsBaromVisibWave heightAir tempDewpointWater temp
2018-Feb-21 13:13N 49°26' W 004°19'3911.7
2018-Feb-21 09:51N 49°46' W 003°26'410.4
2018-Feb-21 09:30N 49°47' W 003°21'510.4
2018-Feb-21 09:00N 49°50' W 003°14'610.6
2018-Feb-21 08:26N 49°53' W 003°06'511.0
2018-Feb-21 08:00N 49°55' W 002°59'611.5
2018-Feb-21 07:27N 49°58' W 002°50'3213.8
2018-Feb-21 05:08N 50°08' W 002°03'215.5
2018-Feb-21 05:00N 50°08' W 001°60'815.4
2018-Feb-21 04:30N 50°11' W 001°49'815.2
2018-Feb-21 04:01N 50°13' W 001°37'714.6
2018-Feb-21 03:31N 50°15' W 001°26'713.9
2018-Feb-21 03:01N 50°17' W 001°16'3810.6
2018-Feb-20 23:27N 50°27' W 000°19'4 9.8
2018-Feb-20 23:00N 50°29' W 000°13'510.3
2018-Feb-20 22:30N 50°31' W 000°05'510.7
2018-Feb-20 22:00N 50°32' E 000°03'611.3
2018-Feb-20 21:30N 50°34' E 000°11'611.9
2018-Feb-20 21:00N 50°36' E 000°20'712.8
2018-Feb-20 20:28N 50°38' E 000°31'613.1
2018-Feb-20 20:00N 50°40' E 000°39'713.1
2018-Feb-20 19:30N 50°43' E 000°49'713.1
2018-Feb-20 19:00N 50°47' E 000°57'712.7
2018-Feb-20 18:28N 50°52' E 001°05'612.3
2018-Feb-20 17:59N 50°56' E 001°12'611.6
2018-Feb-20 17:30N 50°59' E 001°19'510.8
2018-Feb-20 17:00N 51°03' E 001°25'510.1
2018-Feb-20 16:30N 51°06' E 001°31'4 8.9
2018-Feb-20 16:00N 51°09' E 001°37'4 8.8
2018-Feb-20 15:30N 51°12' E 001°42'5 9.1
2018-Feb-20 15:00N 51°15' E 001°47'5 9.6
2018-Feb-20 14:30N 51°19' E 001°50'510.4
2018-Feb-20 14:00N 51°24' E 001°54'611.5
2018-Feb-20 13:30N 51°29' E 001°59'612.5
2018-Feb-20 13:00N 51°34' E 002°04'713.0
2018-Feb-20 12:29N 51°40' E 002°09'913.7
2018-Feb-20 11:49N 51°48' E 002°17'26311.4
2018-Feb-19 12:47N 55°33' E 006°05'311.6
2018-Feb-19 12:29N 55°36' E 006°08'511.6
2018-Feb-19 12:00N 55°41' E 006°14'611.6
2018-Feb-19 11:30N 55°46' E 006°20'611.6
2018-Feb-19 11:00N 55°50' E 006°25'611.7
2018-Feb-19 10:28N 55°56' E 006°31'611.6
2018-Feb-19 09:59N 56°01' E 006°37'511.5
2018-Feb-19 09:30N 56°05' E 006°42'611.3
2018-Feb-19 08:57N 56°10' E 006°48'611.3
2018-Feb-19 08:24N 56°16' E 006°54'511.3
2018-Feb-19 07:58N 56°20' E 006°58'511.1
2018-Feb-19 07:30N 56°24' E 007°03'611.1
2018-Feb-19 06:59N 56°29' E 007°09'511.2
2018-Feb-19 06:30N 56°34' E 007°14'611.3
2018-Feb-19 05:58N 56°39' E 007°20'611.5
2018-Feb-19 05:29N 56°44' E 007°25'611.6
2018-Feb-19 05:00N 56°48' E 007°32'611.7
2018-Feb-19 04:29N 56°53' E 007°38'611.8
2018-Feb-19 03:58N 56°58' E 007°44'611.8
2018-Feb-19 03:30N 57°02' E 007°50'611.6
2018-Feb-19 03:00N 57°07' E 007°56'611.4
2018-Feb-19 02:29N 57°11' E 008°04'511.2
2018-Feb-19 02:00N 57°14' E 008°12'611.4
2018-Feb-19 01:30N 57°17' E 008°21'611.3
2018-Feb-19 00:59N 57°21' E 008°30'611.1
2018-Feb-19 00:29N 57°24' E 008°39'510.9
2018-Feb-19 00:00N 57°27' E 008°47'610.9
2018-Feb-18 23:29N 57°31' E 008°55'510.4
2018-Feb-18 22:59N 57°34' E 009°02'510.2
2018-Feb-18 22:30N 57°37' E 009°09'510.2
2018-Feb-18 22:00N 57°40' E 009°16'510.4
2018-Feb-18 21:30N 57°44' E 009°24'510.5
2018-Feb-18 20:59N 57°47' E 009°31'510.5
2018-Feb-18 20:29N 57°50' E 009°39'510.4
2018-Feb-18 19:59N 57°51' E 009°49'510.5
2018-Feb-18 19:30N 57°51' E 009°59'510.4
2018-Feb-18 18:59N 57°50' E 010°09'510.2
2018-Feb-18 18:30N 57°50' E 010°18'510.0
2018-Feb-18 18:00N 57°50' E 010°27'510.4
2018-Feb-18 17:30N 57°50' E 010°37'510.3
2018-Feb-18 17:00N 57°49' E 010°46'611.3
2018-Feb-18 16:30N 57°45' E 010°54'611.4
2018-Feb-18 16:00N 57°41' E 011°02'612.0
2018-Feb-18 15:30N 57°37' E 011°10'612.0
2018-Feb-18 15:00N 57°33' E 011°18'611.8
2018-Feb-18 14:30N 57°29' E 011°26'612.0
2018-Feb-18 14:00N 57°23' E 011°30'612.0
2018-Feb-18 13:30N 57°18' E 011°34'612.1
2018-Feb-18 13:00N 57°12' E 011°38'612.2
2018-Feb-18 12:30N 57°06' E 011°42'612.2
2018-Feb-18 11:59N 57°00' E 011°46'4311.9
2018-Feb-18 08:22N 56°19' E 012°07'411.5
2018-Feb-18 08:00N 56°16' E 012°12'611.5
2018-Feb-18 07:30N 56°12' E 012°20'611.7
2018-Feb-18 07:00N 56°09' E 012°29'612.8
2018-Feb-18 06:30N 56°05' E 012°37'612.3
2018-Feb-18 06:00N 55°59' E 012°42'612.0
2018-Feb-18 05:30N 55°53' E 012°44'612.3
2018-Feb-18 05:00N 55°47' E 012°43'611.3
2018-Feb-18 04:30N 55°42' E 012°41'510.5
2018-Feb-18 04:00N 55°36' E 012°42'511.0
2018-Feb-18 03:30N 55°31' E 012°43'612.3
2018-Feb-18 03:00N 55°25' E 012°42'612.1
2018-Feb-18 02:30N 55°19' E 012°41'611.7
2018-Feb-18 02:00N 55°16' E 012°51'3711.9
2018-Feb-17 22:54N 55°14' E 013°55'711.9
2018-Feb-17 22:19N 55°13' E 014°07'411.8
2018-Feb-17 21:59N 55°13' E 014°14'611.1
2018-Feb-17 21:28N 55°17' E 014°22'711.9
2018-Feb-17 20:55N 55°22' E 014°29'512.0
2018-Feb-17 20:30N 55°26' E 014°35'611.8
2018-Feb-17 20:00N 55°29' E 014°44'611.8
2018-Feb-17 19:30N 55°32' E 014°52'611.8
2018-Feb-17 19:00N 55°35' E 015°01'611.7
2018-Feb-17 18:30N 55°38' E 015°10'611.7
2018-Feb-17 18:00N 55°41' E 015°19'611.8
2018-Feb-17 17:30N 55°44' E 015°28'612.0
2018-Feb-17 17:00N 55°46' E 015°38'612.1
2018-Feb-17 16:30N 55°49' E 015°47'612.1
2018-Feb-17 16:00N 55°52' E 015°57'612.1
2018-Feb-17 15:30N 55°54' E 016°07'612.2
2018-Feb-17 15:00N 55°57' E 016°17'612.1
2018-Feb-17 14:30N 55°59' E 016°27'3 5.5
2018-Feb-17 13:59N 55°60' E 016°32'0 0.6
2018-Feb-17 13:29N 56°00' E 016°32'0 0.7
2018-Feb-17 12:59N 56°01' E 016°32'0 0.6
2018-Feb-17 12:29N 56°01' E 016°32'0 0.7
2018-Feb-17 11:59N 56°01' E 016°32'0 0.7
2018-Feb-17 11:29N 56°02' E 016°32'0 0.8
2018-Feb-17 10:59N 56°02' E 016°32'0 0.7
2018-Feb-17 10:29N 56°02' E 016°32'0 0.8
2018-Feb-17 09:59N 56°03' E 016°32'0 0.6
2018-Feb-17 09:29N 56°03' E 016°32'0 0.6
2018-Feb-17 08:59N 56°03' E 016°32'0 0.6
2018-Feb-17 08:29N 56°04' E 016°31'1 1.1
2018-Feb-17 08:00N 56°04' E 016°31'4 8.1
2018-Feb-17 07:30N 56°06' E 016°37'29011.7
2018-Feb-16 06:43N 59°34' E 022°57'312.6
2018-Feb-16 06:30N 59°35' E 023°02'612.3
2018-Feb-16 06:00N 59°37' E 023°13'612.1
2018-Feb-16 05:30N 59°39' E 023°25'612.1
2018-Feb-16 05:00N 59°40' E 023°36'612.4
2018-Feb-16 04:30N 59°41' E 023°48'812.3
2018-Feb-16 03:52N 59°44' E 024°03'412.1
2018-Feb-16 03:30N 59°45' E 024°12'612.2
2018-Feb-16 02:59N 59°46' E 024°24'612.4
2018-Feb-16 02:30N 59°48' E 024°36'612.5
2018-Feb-16 02:00N 59°49' E 024°48'611.9
2018-Feb-16 01:30N 59°50' E 024°59'611.9
2018-Feb-16 01:00N 59°51' E 025°11'3211.9
2018-Feb-15 22:20N 59°59' E 026°13'410.7
2018-Feb-15 22:00N 59°60' E 026°19'611.3
2018-Feb-15 21:30N 60°01' E 026°30'611.6
2018-Feb-15 21:00N 60°01' E 026°42'712.9
2018-Feb-15 20:29N 60°00' E 026°55'813.2
2018-Feb-15 19:50N 60°02' E 027°12'2 5.8
2018-Feb-15 19:29N 60°03' E 027°15'510.8
2018-Feb-15 18:59N 60°06' E 027°24'611.1
2018-Feb-15 18:28N 60°09' E 027°35'3 5.6
2018-Feb-15 17:54N 60°10' E 027°40'2 6.1
2018-Feb-15 17:30N 60°11' E 027°45'3 6.1
2018-Feb-15 17:00N 60°11' E 027°51'5 8.3
2018-Feb-15 16:26N 60°10' E 028°00'4 9.1
2018-Feb-15 16:00N 60°09' E 028°08'3 6.5
2018-Feb-15 15:30N 60°08' E 028°14'4 9.0
2018-Feb-15 15:00N 60°05' E 028°21'4 8.1
2018-Feb-15 14:30N 60°04' E 028°29'5 9.6
2018-Feb-15 14:00N 60°03' E 028°38'610.9
2018-Feb-15 13:29N 60°03' E 028°50'611.6
2018-Feb-15 13:00N 60°03' E 029°01'711.9
2018-Feb-15 12:25N 60°02' E 029°15'7 9.5
2018-Feb-15 11:39N 60°01' E 029°29'0 3.1
2018-Feb-15 11:30N 60°01' E 029°30'4 7.5
2018-Feb-15 10:59N 60°00' E 029°38'510.2
2018-Feb-15 10:28N 59°58' E 029°47'510.5
2018-Feb-15 10:00N 59°56' E 029°56'510.3
2018-Feb-15 09:30N 59°54' E 030°05'3 6.5
2018-Feb-15 09:00N 59°53' E 030°12'1 2.0
2018-Feb-15 08:30N 59°54' E 030°13'0 0.0
2018-Feb-15 07:55N 59°54' E 030°13'0 0.0
2018-Feb-15 07:28N 59°54' E 030°13'0 0.0
2018-Feb-15 06:58N 59°54' E 030°13'0 0.0
2018-Feb-15 06:25N 59°54' E 030°13'0 0.0
2018-Feb-15 05:58N 59°54' E 030°13'0 0.0
2018-Feb-15 05:28N 59°54' E 030°13'0 0.0
2018-Feb-15 04:58N 59°54' E 030°13'0 0.0
2018-Feb-15 04:28N 59°54' E 030°13'0 0.0
2018-Feb-15 03:58N 59°54' E 030°13'0 0.0
2018-Feb-15 03:28N 59°54' E 030°13'0 0.0
2018-Feb-15 02:58N 59°54' E 030°13'0 0.0
2018-Feb-15 02:25N 59°54' E 030°13'0 0.0
2018-Feb-15 01:58N 59°54' E 030°13'0 0.0
2018-Feb-15 01:28N 59°54' E 030°13'0 0.0
2018-Feb-15 00:58N 59°54' E 030°13'0 0.0
2018-Feb-15 00:28N 59°54' E 030°13'0 0.0
2018-Feb-14 23:58N 59°54' E 030°13'0 0.0
2018-Feb-14 23:28N 59°54' E 030°13'0 0.0
2018-Feb-14 22:58N 59°54' E 030°13'0 0.0
2018-Feb-14 22:28N 59°54' E 030°13'0 0.0
2018-Feb-14 21:58N 59°54' E 030°13'0 0.0
2018-Feb-14 21:28N 59°54' E 030°13'0 0.0
2018-Feb-14 20:58N 59°54' E 030°13'0 0.0
2018-Feb-14 20:28N 59°54' E 030°13'0 0.0
2018-Feb-14 19:58N 59°54' E 030°13'0 0.0
2018-Feb-14 19:28N 59°54' E 030°13'0 0.0
2018-Feb-14 18:58N 59°54' E 030°13'0 0.0
2018-Feb-14 18:28N 59°54' E 030°13'0 0.0
2018-Feb-14 17:58N 59°54' E 030°13'0 0.0
2018-Feb-14 17:28N 59°54' E 030°13'0 0.0
2018-Feb-14 16:55N 59°54' E 030°13'0 0.0
2018-Feb-14 16:28N 59°54' E 030°13'0 0.0
2018-Feb-14 15:58N 59°54' E 030°13'0 0.0
2018-Feb-14 15:28N 59°54' E 030°13'0 0.0
2018-Feb-14 14:58N 59°54' E 030°13'0 0.0
2018-Feb-14 14:28N 59°54' E 030°13'0 0.0
2018-Feb-14 13:58N 59°54' E 030°13'0 0.0
2018-Feb-14 13:28N 59°54' E 030°13'0 0.0
2018-Feb-14 12:58N 59°54' E 030°13'0 0.0
2018-Feb-14 12:28N 59°54' E 030°13'0 0.0
2018-Feb-14 11:58N 59°54' E 030°13'0 0.0
2018-Feb-14 11:28N 59°54' E 030°13'0 0.0
2018-Feb-14 10:58N 59°54' E 030°13'0 0.0
2018-Feb-14 10:28N 59°54' E 030°13'0 0.0
2018-Feb-14 09:55N 59°54' E 030°13'0 0.0
2018-Feb-14 09:28N 59°54' E 030°13'0 0.0
2018-Feb-14 08:58N 59°54' E 030°13'0 0.0
2018-Feb-14 08:28N 59°54' E 030°13'0 0.0
2018-Feb-14 07:58N 59°54' E 030°13'0 0.0
2018-Feb-14 07:28N 59°54' E 030°13'0 0.0
2018-Feb-14 06:58N 59°54' E 030°13'0 0.0
2018-Feb-14 06:28N 59°54' E 030°13'0 0.0
2018-Feb-14 05:58N 59°54' E 030°13'0 0.0
2018-Feb-14 05:28N 59°54' E 030°13'0 0.0
2018-Feb-14 04:58N 59°54' E 030°13'0 0.0
2018-Feb-14 04:28N 59°54' E 030°13'0 0.0
2018-Feb-14 03:58N 59°54' E 030°13'0 0.0
2018-Feb-14 03:28N 59°54' E 030°13'0 0.0
2018-Feb-14 02:58N 59°54' E 030°13'0 0.0
2018-Feb-14 02:28N 59°54' E 030°13'0 0.0
2018-Feb-14 01:52N 59°54' E 030°13'0 0.0
2018-Feb-14 01:28N 59°54' E 030°13'0 0.0
2018-Feb-14 00:58N 59°54' E 030°13'0 0.0
2018-Feb-14 00:28N 59°54' E 030°13'0 0.0
2018-Feb-13 23:58N 59°54' E 030°13'0 0.0
2018-Feb-13 23:28N 59°54' E 030°13'0 0.0
2018-Feb-13 22:58N 59°54' E 030°13'0 0.0
2018-Feb-13 22:28N 59°54' E 030°13'0 0.0
2018-Feb-13 21:58N 59°54' E 030°13'0 0.0
2018-Feb-13 21:28N 59°54' E 030°13'0 0.0
2018-Feb-13 20:55N 59°54' E 030°13'0 0.0
2018-Feb-13 20:28N 59°54' E 030°13'0 0.0
2018-Feb-13 19:55N 59°54' E 030°13'0 0.0
2018-Feb-13 19:28N 59°54' E 030°13'0 0.0
2018-Feb-13 18:58N 59°54' E 030°13'0 0.0
2018-Feb-13 18:28N 59°54' E 030°13'0 0.0
2018-Feb-13 17:58N 59°54' E 030°13'0 0.0
2018-Feb-13 17:28N 59°54' E 030°13'0 0.0
2018-Feb-13 16:55N 59°54' E 030°13'0 0.0
2018-Feb-13 16:28N 59°54' E 030°13'0 0.0
2018-Feb-13 15:58N 59°54' E 030°13'0 0.0
2018-Feb-13 15:28N 59°54' E 030°13'0 0.0
2018-Feb-13 14:58N 59°54' E 030°13'0 0.0
2018-Feb-13 14:28N 59°54' E 030°13'0 0.0
2018-Feb-13 13:58N 59°54' E 030°13'0 0.0
2018-Feb-13 13:28N 59°54' E 030°13'0 0.0
2018-Feb-13 12:58N 59°54' E 030°13'0 0.0
2018-Feb-13 12:28N 59°54' E 030°13'0 0.0
2018-Feb-13 11:58N 59°54' E 030°13'0 0.0
2018-Feb-13 11:28N 59°54' E 030°13'0 0.0
2018-Feb-13 10:58N 59°54' E 030°13'0 0.0
2018-Feb-13 10:28N 59°54' E 030°13'0 0.0
2018-Feb-13 09:58N 59°54' E 030°13'0 0.0
2018-Feb-13 09:28N 59°54' E 030°13'0 0.0
2018-Feb-13 08:55N 59°54' E 030°13'0 0.0
2018-Feb-13 08:28N 59°54' E 030°13'0 0.0
2018-Feb-13 07:58N 59°54' E 030°13'0 0.0
2018-Feb-13 07:28N 59°54' E 030°13'0 0.0
2018-Feb-13 06:58N 59°54' E 030°13'0 0.0
2018-Feb-13 06:28N 59°54' E 030°13'0 0.0
2018-Feb-13 05:58N 59°54' E 030°13'0 0.0
2018-Feb-13 05:28N 59°54' E 030°13'0 0.0
2018-Feb-13 04:58N 59°54' E 030°13'0 0.0
2018-Feb-13 04:28N 59°54' E 030°13'0 0.0
2018-Feb-13 03:58N 59°54' E 030°13'0 0.0
2018-Feb-13 03:25N 59°54' E 030°13'0 0.0
2018-Feb-13 02:58N 59°54' E 030°13'0 0.0
2018-Feb-13 02:28N 59°54' E 030°13'0 0.0
2018-Feb-13 01:58N 59°54' E 030°13'0 0.0
2018-Feb-13 01:28N 59°54' E 030°13'0 0.0
2018-Feb-13 00:58N 59°54' E 030°13'0 0.0
2018-Feb-13 00:28N 59°54' E 030°13'0 0.0
2018-Feb-12 23:58N 59°54' E 030°13'0 0.0
2018-Feb-12 23:28N 59°54' E 030°13'0 0.0
2018-Feb-12 22:58N 59°54' E 030°13'0 0.0
2018-Feb-12 22:28N 59°54' E 030°13'0 0.0
2018-Feb-12 21:58N 59°54' E 030°13'0 0.0
2018-Feb-12 21:28N 59°54' E 030°13'0 0.0
2018-Feb-12 20:58N 59°54' E 030°13'0 0.0
2018-Feb-12 20:28N 59°54' E 030°13'0 0.0
2018-Feb-12 19:58N 59°54' E 030°13'0 0.0
2018-Feb-12 19:25N 59°54' E 030°13'0 0.0
2018-Feb-12 18:58N 59°54' E 030°13'0 0.0
2018-Feb-12 18:28N 59°54' E 030°13'0 0.0
2018-Feb-12 17:58N 59°54' E 030°13'0 0.0
2018-Feb-12 17:28N 59°54' E 030°13'0 0.0
2018-Feb-12 16:55N 59°54' E 030°13'0 0.0
2018-Feb-12 16:28N 59°54' E 030°13'0 0.0
2018-Feb-12 15:58N 59°54' E 030°13'0 0.0
2018-Feb-12 15:16N 59°54' E 030°13'0 0.0
2018-Feb-12 14:58N 59°54' E 030°13'0 0.0
2018-Feb-12 14:28N 59°54' E 030°13'0 0.0
2018-Feb-12 13:58N 59°54' E 030°13'0 0.0
2018-Feb-12 13:28N 59°54' E 030°13'0 0.0
2018-Feb-12 12:58N 59°54' E 030°13'0 0.0
2018-Feb-12 12:28N 59°54' E 030°13'0 0.0
2018-Feb-12 11:58N 59°54' E 030°13'0 0.0
2018-Feb-12 11:28N 59°54' E 030°13'0 0.0
2018-Feb-12 10:58N 59°54' E 030°13'0 0.0
2018-Feb-12 10:28N 59°54' E 030°13'0 0.0
2018-Feb-12 09:58N 59°54' E 030°13'0 0.0
2018-Feb-12 09:28N 59°54' E 030°13'0 0.0
2018-Feb-12 08:58N 59°54' E 030°13'0 0.0
2018-Feb-12 08:28N 59°54' E 030°13'0 0.0
2018-Feb-12 07:58N 59°54' E 030°13'0 0.0
2018-Feb-12 07:28N 59°54' E 030°13'0 0.0
2018-Feb-12 06:58N 59°54' E 030°13'0 0.0
2018-Feb-12 06:28N 59°54' E 030°13'0 0.0
2018-Feb-12 05:58N 59°54' E 030°13'0 0.0
2018-Feb-12 05:28N 59°54' E 030°13'0 0.0
2018-Feb-12 04:58N 59°54' E 030°13'0 0.0
2018-Feb-12 04:28N 59°54' E 030°13'0 0.0
2018-Feb-12 03:58N 59°54' E 030°13'0 0.0
2018-Feb-12 03:28N 59°54' E 030°13'0 0.0
2018-Feb-12 02:58N 59°54' E 030°13'0 0.0
2018-Feb-12 02:28N 59°54' E 030°13'0 0.0
2018-Feb-12 01:58N 59°54' E 030°13'0 0.0
2018-Feb-12 01:28N 59°54' E 030°13'0 0.1
2018-Feb-12 01:00N 59°54' E 030°13'0 0.0
2018-Feb-12 00:30N 59°54' E 030°13'1 1.0
2018-Feb-12 00:00N 59°53' E 030°13'2 3.7
2018-Feb-11 23:30N 59°55' E 030°15'1 1.5
2018-Feb-11 23:00N 59°54' E 030°14'0 0.0
2018-Feb-11 22:30N 59°54' E 030°14'0 0.0
2018-Feb-11 21:58N 59°54' E 030°14'0 0.0
2018-Feb-11 21:28N 59°54' E 030°14'0 0.0
2018-Feb-11 20:58N 59°54' E 030°14'0 0.0
2018-Feb-11 20:28N 59°54' E 030°14'0 0.0
2018-Feb-11 19:58N 59°54' E 030°14'0 0.0
2018-Feb-11 19:28N 59°54' E 030°14'0 0.0
2018-Feb-11 18:58N 59°54' E 030°14'0 0.0
2018-Feb-11 18:28N 59°54' E 030°14'0 0.0
2018-Feb-11 17:55N 59°54' E 030°14'0 0.0
2018-Feb-11 17:28N 59°54' E 030°14'0 0.0
2018-Feb-11 16:58N 59°54' E 030°14'0 0.0
2018-Feb-11 16:28N 59°54' E 030°14'0 0.0
2018-Feb-11 15:58N 59°54' E 030°14'0 0.0
2018-Feb-11 15:28N 59°54' E 030°14'0 0.0
2018-Feb-11 14:58N 59°54' E 030°14'0 0.0
2018-Feb-11 14:28N 59°54' E 030°14'0 0.0
2018-Feb-11 13:58N 59°54' E 030°14'0 0.0
2018-Feb-11 13:28N 59°54' E 030°14'  

Dump ship's entire track history